createdAt,value
2023-04-29T00:02:17.094Z,16.24
2023-04-29T00:04:43.983Z,16.53
2023-04-29T00:07:10.925Z,16.30
2023-04-29T00:09:37.614Z,15.99
2023-04-29T00:12:04.241Z,16.05
2023-04-29T00:14:30.806Z,16.16
2023-04-29T00:16:57.562Z,16.32
2023-04-29T00:19:24.161Z,16.34
2023-04-29T00:21:50.769Z,16.28
2023-04-29T00:24:17.348Z,16.20
2023-04-29T00:26:43.927Z,15.78
2023-04-29T00:29:10.732Z,15.71
2023-04-29T00:31:37.475Z,15.78
2023-04-29T00:34:04.266Z,15.96
2023-04-29T00:36:30.819Z,15.90
2023-04-29T00:38:57.435Z,15.90
2023-04-29T00:41:24.059Z,16.07
2023-04-29T00:43:50.650Z,16.01
2023-04-29T00:46:17.297Z,16.18
2023-04-29T00:48:43.941Z,16.29
2023-04-29T00:51:10.532Z,16.33
2023-04-29T00:53:37.129Z,16.32
2023-04-29T00:56:03.818Z,16.28
2023-04-29T00:58:30.406Z,16.09
2023-04-29T01:00:57.015Z,16.04
2023-04-29T01:03:23.813Z,15.98
2023-04-29T01:05:50.610Z,15.95
2023-04-29T01:08:18.573Z,16.01
2023-04-29T01:10:45.291Z,15.99
2023-04-29T01:13:11.859Z,16.12
2023-04-29T01:15:38.485Z,16.04
2023-04-29T01:18:05.162Z,15.86
2023-04-29T01:20:31.804Z,15.82
2023-04-29T01:22:58.412Z,15.71
2023-04-29T01:25:24.985Z,15.86
2023-04-29T01:27:51.581Z,15.78
2023-04-29T01:30:18.254Z,15.89
2023-04-29T01:32:44.870Z,15.82
2023-04-29T01:35:11.453Z,15.93
2023-04-29T01:37:38.038Z,15.87
2023-04-29T01:40:04.651Z,15.98
2023-04-29T01:42:31.253Z,15.90
2023-04-29T01:44:57.842Z,15.86
2023-04-29T01:47:24.460Z,15.88
2023-04-29T01:49:51.330Z,15.70
2023-04-29T01:52:18.029Z,15.56
2023-04-29T01:54:44.610Z,15.63
2023-04-29T01:57:11.209Z,15.61
2023-04-29T01:59:37.850Z,15.76
2023-04-29T02:02:04.542Z,15.80
2023-04-29T02:04:31.156Z,15.89
2023-04-29T02:06:57.751Z,15.88
2023-04-29T02:09:24.345Z,15.89
2023-04-29T02:11:50.930Z,15.84
2023-04-29T02:14:17.604Z,15.89
2023-04-29T02:16:44.255Z,15.92
2023-04-29T02:19:11.687Z,15.94
2023-04-29T02:21:38.245Z,15.66
2023-04-29T02:24:05.064Z,15.22
2023-04-29T02:26:31.620Z,15.29
2023-04-29T02:28:58.245Z,15.37
2023-04-29T02:31:24.924Z,15.24
2023-04-29T02:33:51.548Z,15.13
2023-04-29T02:36:18.136Z,15.16
2023-04-29T02:38:44.801Z,15.20
2023-04-29T02:41:11.405Z,15.22
2023-04-29T02:43:38.114Z,15.11
2023-04-29T02:46:04.845Z,15.20
2023-04-29T02:48:31.471Z,15.06
2023-04-29T02:50:58.047Z,14.88
2023-04-29T02:53:24.752Z,15.03
2023-04-29T02:55:51.351Z,14.66
2023-04-29T02:58:17.933Z,14.58
2023-04-29T03:00:44.579Z,14.73
2023-04-29T03:03:11.288Z,14.79
2023-04-29T03:05:38.026Z,14.83
2023-04-29T03:08:04.632Z,14.78
2023-04-29T03:10:31.207Z,14.67
2023-04-29T03:12:57.802Z,14.81
2023-04-29T03:15:24.426Z,15.00
2023-04-29T03:17:51.022Z,14.73
2023-04-29T03:20:17.625Z,14.75
2023-04-29T03:22:44.233Z,14.66
2023-04-29T03:25:10.845Z,14.66
2023-04-29T03:27:37.461Z,14.69
2023-04-29T03:30:04.029Z,14.78
2023-04-29T03:32:30.658Z,14.81
2023-04-29T03:34:57.492Z,14.76
2023-04-29T03:37:24.089Z,14.85
2023-04-29T03:39:50.999Z,14.93
2023-04-29T03:42:17.886Z,14.83
2023-04-29T03:44:44.472Z,14.94
2023-04-29T03:47:11.064Z,14.83
2023-04-29T03:49:38.914Z,14.80
2023-04-29T03:52:05.719Z,14.59
2023-04-29T03:54:32.323Z,14.40
2023-04-29T03:56:58.916Z,14.62
2023-04-29T03:59:25.474Z,14.75
2023-04-29T04:01:52.147Z,14.70
2023-04-29T04:04:18.856Z,14.35
2023-04-29T04:06:45.603Z,14.42
2023-04-29T04:09:12.180Z,14.62
2023-04-29T04:11:38.750Z,14.77
2023-04-29T04:14:05.326Z,14.77
2023-04-29T04:16:32.156Z,14.60
2023-04-29T04:18:58.772Z,14.62
2023-04-29T04:21:25.382Z,14.48
2023-04-29T04:23:52.002Z,14.64
2023-04-29T04:26:18.583Z,14.74
2023-04-29T04:28:45.181Z,14.76
2023-04-29T04:31:11.782Z,14.94
2023-04-29T04:33:38.437Z,15.13
2023-04-29T04:36:05.125Z,15.21
2023-04-29T04:38:31.855Z,15.12
2023-04-29T04:40:58.415Z,15.23
2023-04-29T04:43:25.008Z,14.95
2023-04-29T04:45:51.648Z,15.16
2023-04-29T04:48:18.258Z,15.37
2023-04-29T04:50:44.867Z,15.47
2023-04-29T04:53:11.796Z,15.62
2023-04-29T04:55:38.386Z,15.54
2023-04-29T04:58:05.015Z,15.83
2023-04-29T05:00:31.603Z,15.99
2023-04-29T05:02:58.564Z,16.26
2023-04-29T05:05:25.260Z,16.69
2023-04-29T05:07:52.228Z,16.73
2023-04-29T05:10:18.865Z,16.94
2023-04-29T05:12:45.465Z,17.12
2023-04-29T05:15:12.163Z,17.27
2023-04-29T05:17:38.835Z,17.36
2023-04-29T05:20:05.455Z,17.51
2023-04-29T05:22:32.060Z,17.59
2023-04-29T05:24:58.688Z,17.74
2023-04-29T05:27:25.275Z,17.70
2023-04-29T05:29:52.159Z,17.56
2023-04-29T05:32:18.944Z,17.87
2023-04-29T05:34:45.515Z,18.14
2023-04-29T05:37:12.099Z,18.45
2023-04-29T05:39:38.697Z,18.22
2023-04-29T05:42:05.270Z,18.08
2023-04-29T05:44:31.863Z,17.79
2023-04-29T05:46:58.443Z,17.93
2023-04-29T05:49:25.022Z,17.75
2023-04-29T05:51:51.658Z,17.82
2023-04-29T05:54:19.078Z,17.61
2023-04-29T05:56:45.712Z,17.65
2023-04-29T05:59:12.358Z,18.08
2023-04-29T06:01:38.929Z,18.38
2023-04-29T06:04:05.664Z,18.44
2023-04-29T06:06:32.498Z,18.42
2023-04-29T06:08:59.128Z,18.67
2023-04-29T06:11:25.716Z,18.63
2023-04-29T06:13:52.306Z,18.87
2023-04-29T06:16:18.971Z,19.16
2023-04-29T06:18:45.723Z,19.34
2023-04-29T06:21:12.318Z,19.42
2023-04-29T06:23:38.906Z,19.72
2023-04-29T06:26:05.490Z,20.03
2023-04-29T06:28:32.053Z,20.16
2023-04-29T06:30:59.186Z,20.10
2023-04-29T06:33:25.804Z,19.86
2023-04-29T06:35:52.439Z,19.80
2023-04-29T06:38:19.070Z,20.07
2023-04-29T06:40:45.756Z,20.03
2023-04-29T06:43:12.357Z,19.89
2023-04-29T06:45:38.971Z,19.96
2023-04-29T06:48:05.616Z,19.64
2023-04-29T06:50:32.286Z,19.56
2023-04-29T06:52:58.849Z,19.74
2023-04-29T06:55:25.449Z,20.10
2023-04-29T06:57:52.035Z,19.74
2023-04-29T07:00:18.595Z,20.17
2023-04-29T07:02:45.353Z,20.64
2023-04-29T07:05:12.020Z,20.84
2023-04-29T07:07:38.605Z,21.12
2023-04-29T07:10:05.219Z,21.15
2023-04-29T07:12:31.812Z,21.15
2023-04-29T07:14:58.404Z,21.50
2023-04-29T07:17:25.026Z,20.80
2023-04-29T07:19:51.963Z,20.97
2023-04-29T07:22:18.698Z,21.48
2023-04-29T07:24:45.316Z,21.68
2023-04-29T07:27:11.921Z,21.98
2023-04-29T07:29:38.525Z,21.29
2023-04-29T07:32:05.359Z,21.70
2023-04-29T07:34:32.025Z,21.86
2023-04-29T07:36:58.602Z,22.49
2023-04-29T07:39:25.184Z,22.52
2023-04-29T07:41:51.863Z,21.90
2023-04-29T07:44:18.463Z,22.13
2023-04-29T07:46:45.170Z,22.35
2023-04-29T07:49:11.859Z,22.76
2023-04-29T07:51:38.521Z,23.03
2023-04-29T07:54:05.183Z,22.82
2023-04-29T07:56:31.799Z,23.06
2023-04-29T07:58:58.502Z,23.10
2023-04-29T08:01:25.146Z,22.81
2023-04-29T08:03:52.125Z,23.43
2023-04-29T08:06:19.317Z,23.92
2023-04-29T08:08:46.033Z,24.09
2023-04-29T08:11:12.657Z,24.77
2023-04-29T08:13:39.248Z,23.89
2023-04-29T08:16:05.868Z,23.82
2023-04-29T08:18:32.526Z,23.80
2023-04-29T08:20:59.434Z,23.25
2023-04-29T08:23:26.180Z,23.40
2023-04-29T08:25:52.828Z,23.57
2023-04-29T08:28:19.726Z,23.69
2023-04-29T08:30:46.358Z,23.77
2023-04-29T08:33:13.086Z,23.89
2023-04-29T08:35:39.748Z,23.71
2023-04-29T08:38:06.659Z,23.71
2023-04-29T08:40:33.465Z,23.85
2023-04-29T08:43:00.156Z,23.41
2023-04-29T08:45:26.817Z,23.14
2023-04-29T08:47:53.791Z,23.54
2023-04-29T08:50:20.467Z,23.88
2023-04-29T08:52:47.349Z,23.71
2023-04-29T08:55:14.026Z,23.39
2023-04-29T08:57:40.734Z,23.86
2023-04-29T09:00:07.345Z,24.44
2023-04-29T09:02:33.962Z,24.44
2023-04-29T09:05:00.719Z,24.41
2023-04-29T09:07:27.394Z,24.60
2023-04-29T09:09:53.961Z,24.63
2023-04-29T09:12:20.656Z,24.80
2023-04-29T09:14:47.225Z,24.46
2023-04-29T09:17:13.841Z,24.13
2023-04-29T09:19:40.412Z,24.40
2023-04-29T09:22:07.118Z,24.43
2023-04-29T09:24:33.765Z,24.49
2023-04-29T09:27:00.484Z,25.08
2023-04-29T09:29:27.057Z,25.45
2023-04-29T09:31:53.842Z,25.48
2023-04-29T09:34:20.526Z,25.10
2023-04-29T09:36:47.143Z,24.95
2023-04-29T09:39:13.807Z,25.51
2023-04-29T09:41:40.381Z,25.87
2023-04-29T09:44:06.970Z,26.08
2023-04-29T09:46:33.608Z,26.20
2023-04-29T09:49:00.245Z,26.40
2023-04-29T09:51:26.980Z,26.61
2023-04-29T09:53:53.914Z,26.39
2023-04-29T09:56:20.496Z,27.29
2023-04-29T09:58:47.107Z,26.90
2023-04-29T10:01:13.766Z,26.77
2023-04-29T10:03:40.566Z,27.03
2023-04-29T10:06:07.261Z,26.90
2023-04-29T10:08:33.951Z,26.01
2023-04-29T10:11:00.590Z,25.44
2023-04-29T10:13:27.212Z,25.58
2023-04-29T10:15:53.819Z,25.89
2023-04-29T10:18:20.567Z,25.73
2023-04-29T10:20:47.276Z,26.04
2023-04-29T10:23:13.870Z,27.09
2023-04-29T10:25:40.520Z,27.58
2023-04-29T10:28:07.143Z,27.84
2023-04-29T10:30:33.777Z,27.46
2023-04-29T10:33:01.701Z,27.68
2023-04-29T10:35:29.468Z,27.70
2023-04-29T10:37:56.122Z,27.16
2023-04-29T10:40:22.709Z,26.74
2023-04-29T10:42:49.282Z,27.02
2023-04-29T10:45:15.984Z,26.31
2023-04-29T10:47:42.609Z,25.87
2023-04-29T10:50:09.243Z,25.48
2023-04-29T10:52:35.849Z,25.64
2023-04-29T10:55:02.452Z,25.52
2023-04-29T10:57:29.034Z,25.64
2023-04-29T10:59:55.657Z,25.66
2023-04-29T11:02:22.276Z,25.56
2023-04-29T11:04:48.963Z,26.29
2023-04-29T11:07:15.583Z,26.77
2023-04-29T11:09:42.174Z,27.05
2023-04-29T11:12:08.858Z,27.01
2023-04-29T11:14:35.580Z,27.17
2023-04-29T11:17:02.162Z,28.05
2023-04-29T11:19:28.861Z,28.77
2023-04-29T11:21:55.504Z,28.61
2023-04-29T11:24:22.088Z,28.48
2023-04-29T11:26:48.939Z,28.88
2023-04-29T11:29:15.613Z,28.87
2023-04-29T11:31:42.327Z,28.91
2023-04-29T11:34:09.059Z,29.35
2023-04-29T11:36:35.706Z,29.74
2023-04-29T11:39:02.310Z,29.83
2023-04-29T11:41:28.859Z,29.82
2023-04-29T11:43:55.381Z,29.05
2023-04-29T11:46:22.028Z,28.71
2023-04-29T11:48:48.653Z,28.94
2023-04-29T11:51:15.328Z,28.37
2023-04-29T11:53:41.930Z,27.61
2023-04-29T11:56:08.536Z,26.86
2023-04-29T11:58:35.364Z,27.31
2023-04-29T12:01:01.941Z,27.44
2023-04-29T12:03:28.627Z,27.18
2023-04-29T12:05:55.426Z,27.72
2023-04-29T12:08:22.284Z,27.70
2023-04-29T12:10:48.898Z,28.33
2023-04-29T12:13:15.539Z,28.21
2023-04-29T12:15:42.316Z,28.13
2023-04-29T12:18:09.027Z,27.82
2023-04-29T12:20:35.634Z,27.91
2023-04-29T12:23:02.261Z,27.81
2023-04-29T12:25:29.164Z,28.20
2023-04-29T12:27:55.747Z,27.78
2023-04-29T12:30:22.549Z,27.91
2023-04-29T12:32:49.179Z,28.01
2023-04-29T12:35:15.826Z,28.85
2023-04-29T12:37:42.412Z,28.69
2023-04-29T12:40:09.079Z,29.24
2023-04-29T12:42:35.729Z,29.26
2023-04-29T12:45:02.559Z,28.27
2023-04-29T12:47:29.220Z,28.05
2023-04-29T12:49:55.877Z,28.43
2023-04-29T12:52:22.786Z,29.13
2023-04-29T12:54:49.390Z,29.03
2023-04-29T12:57:16.007Z,28.80
2023-04-29T12:59:42.617Z,28.40
2023-04-29T13:02:09.374Z,28.43
2023-04-29T13:04:36.302Z,29.09
2023-04-29T13:07:07.350Z,28.83
2023-04-29T13:09:34.011Z,28.70
2023-04-29T13:12:00.618Z,28.80
2023-04-29T13:14:27.189Z,28.43
2023-04-29T13:16:53.892Z,28.43
2023-04-29T13:19:38.433Z,28.38
2023-04-29T13:22:07.146Z,28.31
2023-04-29T13:24:33.791Z,28.48
2023-04-29T13:27:00.374Z,28.43
2023-04-29T13:29:27.009Z,28.38
2023-04-29T13:31:53.612Z,28.10
2023-04-29T13:34:20.226Z,27.79
2023-04-29T13:36:46.807Z,27.57
2023-04-29T13:39:14.896Z,27.52
2023-04-29T13:41:45.525Z,27.13
2023-04-29T13:44:23.915Z,26.58
2023-04-29T13:46:57.523Z,26.11
2023-04-29T13:49:55.960Z,25.50
2023-04-29T13:54:59.476Z,25.64
2023-04-29T13:58:16.550Z,25.35
2023-04-29T14:00:31.570Z,25.06
2023-04-29T14:05:27.565Z,25.33
2023-04-29T14:07:54.218Z,25.37
2023-04-29T14:10:20.815Z,24.90
2023-04-29T14:12:47.384Z,25.04
2023-04-29T14:15:13.978Z,24.94
2023-04-29T14:17:40.748Z,24.53
2023-04-29T14:20:07.559Z,24.97
2023-04-29T14:22:34.198Z,25.18
2023-04-29T14:25:00.758Z,25.09
2023-04-29T14:27:27.379Z,25.17
2023-04-29T14:29:53.949Z,25.40
2023-04-29T14:32:20.640Z,25.49
2023-04-29T14:34:47.306Z,25.44
2023-04-29T14:37:13.941Z,25.18
2023-04-29T14:39:40.580Z,25.36
2023-04-29T14:42:07.149Z,25.32
2023-04-29T14:44:33.727Z,25.45
2023-04-29T14:47:00.350Z,25.44
2023-04-29T14:49:27.768Z,25.58
2023-04-29T14:51:55.920Z,25.78
2023-04-29T14:54:22.497Z,25.97
2023-04-29T14:56:49.072Z,26.04
2023-04-29T14:59:15.673Z,26.47
2023-04-29T15:01:42.304Z,26.82
2023-04-29T15:04:08.925Z,26.76
2023-04-29T15:06:35.560Z,26.68
2023-04-29T15:09:02.173Z,27.08
2023-04-29T15:11:28.807Z,27.09
2023-04-29T15:13:55.392Z,27.44
2023-04-29T15:16:22.081Z,27.52
2023-04-29T15:18:48.682Z,27.90
2023-04-29T15:21:15.272Z,27.94
2023-04-29T15:23:41.932Z,27.93
2023-04-29T15:26:08.516Z,27.80
2023-04-29T15:28:35.101Z,28.10
2023-04-29T15:31:01.672Z,28.17
2023-04-29T15:33:28.311Z,27.72
2023-04-29T15:35:54.979Z,27.35
2023-04-29T15:38:21.773Z,27.25
2023-04-29T15:40:48.357Z,27.48
2023-04-29T15:43:15.220Z,27.47
2023-04-29T15:45:41.820Z,27.71
2023-04-29T15:48:08.545Z,27.30
2023-04-29T15:50:35.199Z,27.65
2023-04-29T15:53:01.809Z,27.54
2023-04-29T15:55:28.913Z,27.34
2023-04-29T15:57:55.538Z,27.29
2023-04-29T16:00:22.142Z,27.36
2023-04-29T16:02:48.811Z,27.24
2023-04-29T16:05:15.478Z,27.27
2023-04-29T16:07:42.050Z,26.94
2023-04-29T16:10:08.691Z,26.85
2023-04-29T16:12:35.301Z,26.51
2023-04-29T16:15:01.911Z,26.48
2023-04-29T16:17:28.544Z,25.60
2023-04-29T16:19:55.375Z,25.74
2023-04-29T16:22:22.175Z,25.49
2023-04-29T16:24:49.925Z,25.61
2023-04-29T16:27:16.649Z,25.20
2023-04-29T16:29:43.261Z,25.02
2023-04-29T16:32:09.877Z,25.32
2023-04-29T16:34:36.431Z,25.33
2023-04-29T16:37:03.016Z,25.11
2023-04-29T16:39:29.663Z,25.26
2023-04-29T16:41:56.590Z,25.01
2023-04-29T16:44:23.215Z,24.68
2023-04-29T16:46:49.927Z,25.14
2023-04-29T16:49:16.502Z,25.50
2023-04-29T16:51:43.092Z,25.50
2023-04-29T16:54:09.688Z,25.44
2023-04-29T16:56:36.622Z,25.41
2023-04-29T16:59:03.384Z,25.58
2023-04-29T17:01:30.040Z,25.57
2023-04-29T17:03:56.640Z,25.49
2023-04-29T17:06:23.468Z,25.60
2023-04-29T17:08:51.444Z,25.52
2023-04-29T17:11:18.289Z,25.60
2023-04-29T17:13:44.927Z,25.51
2023-04-29T17:16:11.564Z,25.45
2023-04-29T17:18:38.556Z,25.12
2023-04-29T17:21:05.115Z,24.95
2023-04-29T17:23:31.719Z,25.04
2023-04-29T17:25:58.362Z,25.19
2023-04-29T17:28:24.947Z,25.06
2023-04-29T17:30:51.546Z,24.97
2023-04-29T17:33:18.161Z,24.90
2023-04-29T17:35:44.759Z,24.89
2023-04-29T17:38:11.523Z,24.84
2023-04-29T17:40:38.124Z,24.79
2023-04-29T17:43:04.703Z,24.69
2023-04-29T17:45:31.326Z,24.53
2023-04-29T17:47:58.205Z,24.47
2023-04-29T17:50:24.971Z,24.24
2023-04-29T17:52:51.626Z,24.13
2023-04-29T17:55:18.244Z,24.31
2023-04-29T17:57:44.815Z,24.14
2023-04-29T18:00:11.478Z,23.99
2023-04-29T18:02:38.129Z,24.11
2023-04-29T18:05:04.763Z,24.06
2023-04-29T18:07:31.463Z,24.26
2023-04-29T18:09:58.359Z,24.20
2023-04-29T18:12:25.246Z,24.23
2023-04-29T18:14:52.124Z,23.85
2023-04-29T18:17:18.739Z,23.88
2023-04-29T18:19:45.318Z,23.68
2023-04-29T18:22:11.912Z,23.63
2023-04-29T18:24:38.480Z,23.73
2023-04-29T18:27:05.115Z,23.57
2023-04-29T18:29:31.678Z,23.24
2023-04-29T18:31:58.418Z,23.19
2023-04-29T18:34:25.081Z,23.06
2023-04-29T18:36:51.672Z,23.08
2023-04-29T18:39:18.261Z,22.95
2023-04-29T18:41:44.827Z,22.71
2023-04-29T18:44:11.413Z,22.60
2023-04-29T18:46:38.030Z,22.40
2023-04-29T18:49:04.636Z,22.41
2023-04-29T18:51:31.244Z,22.33
2023-04-29T18:53:57.826Z,21.98
2023-04-29T18:56:24.440Z,21.59
2023-04-29T18:58:51.005Z,21.64
2023-04-29T19:01:17.632Z,21.74
2023-04-29T19:03:44.295Z,21.06
2023-04-29T19:06:10.958Z,20.89
2023-04-29T19:08:37.590Z,21.04
2023-04-29T19:11:04.167Z,21.13
2023-04-29T19:13:30.756Z,20.57
2023-04-29T19:15:57.343Z,20.54
2023-04-29T19:18:24.020Z,20.57
2023-04-29T19:20:50.615Z,20.69
2023-04-29T19:23:17.185Z,20.65
2023-04-29T19:25:43.793Z,20.70
2023-04-29T19:28:10.522Z,20.60
2023-04-29T19:30:37.214Z,20.46
2023-04-29T19:33:03.828Z,20.36
2023-04-29T19:35:30.455Z,20.40
2023-04-29T19:37:57.073Z,20.34
2023-04-29T19:40:23.665Z,20.40
2023-04-29T19:42:50.249Z,20.33
2023-04-29T19:45:16.845Z,20.30
2023-04-29T19:47:43.484Z,20.09
2023-04-29T19:50:10.324Z,20.15
2023-04-29T19:52:37.181Z,20.22
2023-04-29T19:55:03.795Z,20.03
2023-04-29T19:57:30.376Z,20.10
2023-04-29T19:59:57.292Z,20.25
2023-04-29T20:02:24.145Z,20.35
2023-04-29T20:04:50.804Z,20.43
2023-04-29T20:07:17.714Z,20.52
2023-04-29T20:09:44.392Z,20.24
2023-04-29T20:12:10.984Z,20.21
2023-04-29T20:14:37.557Z,20.36
2023-04-29T20:17:04.446Z,19.84
2023-04-29T20:19:31.019Z,19.85
2023-04-29T20:21:57.610Z,20.13
2023-04-29T20:24:24.361Z,20.47
2023-04-29T20:26:50.964Z,20.51
2023-04-29T20:29:17.557Z,20.35
2023-04-29T20:31:44.208Z,20.45
2023-04-29T20:34:10.846Z,20.16
2023-04-29T20:36:38.492Z,20.28
2023-04-29T20:39:05.058Z,20.38
2023-04-29T20:41:31.669Z,20.35
2023-04-29T20:43:58.252Z,20.35
2023-04-29T20:46:26.123Z,20.45
2023-04-29T20:48:52.841Z,20.34
2023-04-29T20:51:19.468Z,19.49
2023-04-29T20:53:46.566Z,19.53
2023-04-29T20:56:13.162Z,19.10
2023-04-29T20:58:39.779Z,19.28
2023-04-29T21:01:06.409Z,19.52
2023-04-29T21:03:33.093Z,19.60
2023-04-29T21:05:59.687Z,19.52
2023-04-29T21:08:26.308Z,19.60
2023-04-29T21:10:52.885Z,19.52
2023-04-29T21:13:19.605Z,19.15
2023-04-29T21:15:46.259Z,19.28
2023-04-29T21:18:12.890Z,19.37
2023-04-29T21:20:39.498Z,19.50
2023-04-29T21:23:06.237Z,19.44
2023-04-29T21:25:32.796Z,19.23
2023-04-29T21:27:59.411Z,19.32
2023-04-29T21:30:26.005Z,19.28
2023-04-29T21:32:52.674Z,19.23
2023-04-29T21:35:19.293Z,18.94
2023-04-29T21:37:45.893Z,18.45
2023-04-29T21:40:12.526Z,18.53
2023-04-29T21:42:39.291Z,18.50
2023-04-29T21:45:05.896Z,18.59
2023-04-29T21:47:32.591Z,18.70
2023-04-29T21:49:59.189Z,18.83
2023-04-29T21:52:25.773Z,18.84
2023-04-29T21:54:52.510Z,18.60
2023-04-29T21:57:23.987Z,18.67
2023-04-29T21:59:55.974Z,18.68
2023-04-29T22:02:22.784Z,18.62
2023-04-29T22:04:49.480Z,18.55
2023-04-29T22:07:16.082Z,18.36
2023-04-29T22:09:42.666Z,18.24
2023-04-29T22:12:10.526Z,18.04
2023-04-29T22:14:37.146Z,18.00
2023-04-29T22:17:03.764Z,17.70
2023-04-29T22:19:30.354Z,17.76
2023-04-29T22:21:56.983Z,17.85
2023-04-29T22:24:23.579Z,17.69
2023-04-29T22:26:50.290Z,17.50
2023-04-29T22:29:16.885Z,17.35
2023-04-29T22:31:43.502Z,17.22
2023-04-29T22:34:10.116Z,16.91
2023-04-29T22:36:36.671Z,16.92
2023-04-29T22:39:03.285Z,17.08
2023-04-29T22:41:29.901Z,17.06
2023-04-29T22:43:56.475Z,17.09
2023-04-29T22:46:23.127Z,17.07
2023-04-29T22:48:49.713Z,17.08
2023-04-29T22:51:16.377Z,17.09
2023-04-29T22:53:42.978Z,17.15
2023-04-29T22:56:09.554Z,17.16
2023-04-29T22:58:36.218Z,16.94
2023-04-29T23:01:02.839Z,16.89
2023-04-29T23:03:29.652Z,16.99
2023-04-29T23:05:56.273Z,17.01
2023-04-29T23:08:22.903Z,17.00
2023-04-29T23:10:49.561Z,17.01
2023-04-29T23:13:16.263Z,16.91
2023-04-29T23:15:42.846Z,16.83
2023-04-29T23:18:09.570Z,16.86
2023-04-29T23:20:36.271Z,16.82
2023-04-29T23:23:02.827Z,16.77
2023-04-29T23:25:29.443Z,16.56
2023-04-29T23:27:56.092Z,16.37
2023-04-29T23:30:22.691Z,16.41
2023-04-29T23:32:49.328Z,16.58
2023-04-29T23:35:15.974Z,16.64
2023-04-29T23:37:42.611Z,16.75
2023-04-29T23:40:09.241Z,16.78
2023-04-29T23:42:35.876Z,16.46
2023-04-29T23:45:02.464Z,16.47
2023-04-29T23:47:29.100Z,16.37
2023-04-29T23:49:55.890Z,16.59
2023-04-29T23:52:22.818Z,16.57
2023-04-29T23:54:49.432Z,16.44
2023-04-29T23:57:16.020Z,16.41
2023-04-29T23:59:42.618Z,16.62
